createdAt,value
2018-06-20T00:00:50.654Z,79.48
2018-06-20T00:02:00.992Z,79.48
2018-06-20T00:03:11.144Z,79.19
2018-06-20T00:04:21.337Z,79.1
2018-06-20T00:05:31.520Z,79.28
2018-06-20T00:06:41.749Z,78.96
2018-06-20T00:07:51.755Z,79.19
2018-06-20T00:09:01.942Z,79
2018-06-20T00:10:12.082Z,79
2018-06-20T00:11:22.321Z,79.19
2018-06-20T00:12:32.235Z,78.9
2018-06-20T00:13:42.383Z,78.71
2018-06-20T00:14:52.530Z,79
2018-06-20T00:16:02.749Z,79
2018-06-20T00:17:12.941Z,78.9
2018-06-20T00:18:23.129Z,78.9
2018-06-20T00:19:33.061Z,79
2018-06-20T00:20:43.456Z,79.48
2018-06-20T00:21:53.753Z,79.38
2018-06-20T00:23:03.932Z,79.28
2018-06-20T00:24:14.098Z,79.38
2018-06-20T00:25:24.332Z,79.28
2018-06-20T00:26:34.630Z,79.1
2018-06-20T00:27:44.913Z,78.9
2018-06-20T00:28:55.119Z,78.9
2018-06-20T00:30:05.309Z,78.9
2018-06-20T00:31:15.527Z,79
2018-06-20T00:32:25.698Z,79
2018-06-20T00:33:35.908Z,79.1
2018-06-20T00:34:46.072Z,79
2018-06-20T00:35:56.276Z,78.81
2018-06-20T00:37:06.719Z,79.1
2018-06-20T00:38:16.881Z,79
2018-06-20T00:39:27.330Z,79.1
2018-06-20T00:40:37.473Z,79
2018-06-20T00:41:47.842Z,78.9
2018-06-20T00:42:58.067Z,78.9
2018-06-20T00:44:08.448Z,78.52
2018-06-20T00:45:18.597Z,78.61
2018-06-20T00:46:28.840Z,78.9
2018-06-20T00:47:38.704Z,78.52
2018-06-20T00:48:48.937Z,79.1
2018-06-20T00:49:59.389Z,78.71
2018-06-20T00:51:09.560Z,78.61
2018-06-20T00:52:19.760Z,78.61
2018-06-20T00:53:29.914Z,78.81
2018-06-20T00:54:40.060Z,78.9
2018-06-20T00:55:50.197Z,78.71
2018-06-20T00:57:00.336Z,78.61
2018-06-20T00:58:10.670Z,79.1
2018-06-20T00:59:20.888Z,79.1
2018-06-20T01:00:31.117Z,78.9
2018-06-20T01:01:41.328Z,79
2018-06-20T01:02:51.703Z,79.1
2018-06-20T01:04:01.851Z,79.1
2018-06-20T01:05:11.986Z,78.81
2018-06-20T01:06:22.155Z,79.28
2018-06-20T01:07:32.332Z,79.48
2018-06-20T01:08:42.577Z,79.58
2018-06-20T01:09:52.856Z,79.19
2018-06-20T01:11:03.048Z,79.19
2018-06-20T01:12:13.410Z,79.38
2018-06-20T01:13:23.577Z,79.28
2018-06-20T01:14:33.488Z,79.19
2018-06-20T01:15:43.626Z,79.1
2018-06-20T01:16:53.791Z,79
2018-06-20T01:18:03.581Z,79
2018-06-20T01:19:13.733Z,79.1
2018-06-20T01:20:23.931Z,79
2018-06-20T01:21:34.089Z,78.9
2018-06-20T01:22:44.269Z,79
2018-06-20T01:23:54.505Z,79.48
2018-06-20T01:25:04.691Z,79.48
2018-06-20T01:26:14.910Z,79.28
2018-06-20T01:27:25.127Z,79.1
2018-06-20T01:28:35.029Z,79.19
2018-06-20T01:29:45.160Z,79.1
2018-06-20T01:30:55.070Z,78.9
2018-06-20T01:32:05.281Z,79.38
2018-06-20T01:33:15.476Z,79.19
2018-06-20T01:34:25.657Z,79.38
2018-06-20T01:35:35.828Z,79.48
2018-06-20T01:36:46.047Z,79.38
2018-06-20T01:37:56.233Z,79.38
2018-06-20T01:39:06.371Z,79.77
2018-06-20T01:40:16.249Z,79.96
2018-06-20T01:41:26.389Z,79.67
2018-06-20T01:42:36.613Z,79.96
2018-06-20T01:43:46.815Z,79.86
2018-06-20T01:44:57.024Z,79.58
2018-06-20T01:46:07.224Z,79.28
2018-06-20T01:47:17.370Z,79
2018-06-20T01:48:27.507Z,79.1
2018-06-20T01:49:37.674Z,79.1
2018-06-20T01:50:47.815Z,79.1
2018-06-20T01:51:58.011Z,79
2018-06-20T01:53:08.417Z,79.48
2018-06-20T01:54:18.565Z,79.48
2018-06-20T01:55:28.686Z,79.86
2018-06-20T01:56:38.670Z,79.86
2018-06-20T01:57:49.085Z,79.58
2018-06-20T01:58:59.536Z,79.77
2018-06-20T02:00:09.669Z,79.86
2018-06-20T02:01:19.820Z,79.86
2018-06-20T02:02:29.984Z,79.86
2018-06-20T02:03:40.188Z,79.77
2018-06-20T02:04:50.336Z,79.96
2018-06-20T02:06:00.516Z,80.06
2018-06-20T02:07:10.708Z,79.77
2018-06-20T02:08:21.021Z,79.77
2018-06-20T02:09:31.202Z,79.96
2018-06-20T02:10:41.375Z,80.06
2018-06-20T02:11:51.627Z,80.25
2018-06-20T02:13:01.783Z,80.06
2018-06-20T02:14:11.922Z,80.25
2018-06-20T02:15:22.062Z,80.35
2018-06-20T02:16:32.195Z,80.35
2018-06-20T02:17:41.974Z,80.06
2018-06-20T02:18:52.126Z,80.15
2018-06-20T02:20:02.294Z,80.44
2018-06-20T02:21:12.420Z,80.44
2018-06-20T02:22:22.613Z,80.44
2018-06-20T02:23:32.781Z,80.44
2018-06-20T02:24:42.968Z,80.35
2018-06-20T02:25:53.090Z,80.25
2018-06-20T02:27:03.243Z,80.25
2018-06-20T02:28:13.598Z,80.25
2018-06-20T02:29:23.735Z,80.25
2018-06-20T02:30:33.530Z,80.25
2018-06-20T02:31:43.861Z,80.19
2018-06-20T02:32:54.263Z,80
2018-06-20T02:34:04.480Z,79.96
2018-06-20T02:35:14.631Z,80.25
2018-06-20T02:36:24.894Z,79.96
2018-06-20T02:37:35.080Z,80.25
2018-06-20T02:38:45.318Z,80.25
2018-06-20T02:39:55.461Z,80.06
2018-06-20T02:41:05.622Z,80.15
2018-06-20T02:42:15.837Z,80.25
2018-06-20T02:43:26.039Z,80.35
2018-06-20T02:44:36.184Z,80.06
2018-06-20T02:45:46.347Z,80.35
2018-06-20T02:46:56.534Z,80.35
2018-06-20T02:48:06.702Z,80.35
2018-06-20T02:49:16.849Z,80.25
2018-06-20T02:50:27.015Z,80.35
2018-06-20T02:51:37.276Z,80.44
2018-06-20T02:52:47.255Z,80.15
2018-06-20T02:53:57.287Z,80.15
2018-06-20T02:55:07.445Z,80.35
2018-06-20T02:56:17.667Z,80.35
2018-06-20T02:57:27.871Z,80.73
2018-06-20T02:58:38.166Z,80.15
2018-06-20T02:59:48.331Z,80.73
2018-06-20T03:00:58.794Z,80.83
2018-06-20T03:02:08.926Z,80.63
2018-06-20T03:03:19.401Z,80.63
2018-06-20T03:04:29.524Z,80.73
2018-06-20T03:05:39.659Z,80.44
2018-06-20T03:06:49.882Z,80.54
2018-06-20T03:08:00.063Z,80.92
2018-06-20T03:09:10.240Z,80.73
2018-06-20T03:10:20.170Z,81.12
2018-06-20T03:11:30.313Z,81.02
2018-06-20T03:12:40.775Z,80.92
2018-06-20T03:13:50.996Z,81.6
2018-06-20T03:15:01.302Z,81.6
2018-06-20T03:16:11.530Z,81.4
2018-06-20T03:17:21.671Z,81.7
2018-06-20T03:18:31.811Z,81.7
2018-06-20T03:19:42.086Z,81.6
2018-06-20T03:20:52.313Z,81.46
2018-06-20T03:22:02.495Z,81.3
2018-06-20T03:23:12.737Z,81.4
2018-06-20T03:24:22.985Z,82.08
2018-06-20T03:25:33.136Z,81.98
2018-06-20T03:26:42.999Z,81.98
2018-06-20T03:27:53.219Z,81.88
2018-06-20T03:29:03.128Z,81.3
2018-06-20T03:30:13.291Z,81.3
2018-06-20T03:31:23.447Z,81.5
2018-06-20T03:32:33.606Z,81.5
2018-06-20T03:33:43.727Z,81.4
2018-06-20T03:34:53.857Z,81.6
2018-06-20T03:36:03.989Z,81.4
2018-06-20T03:37:14.158Z,81.3
2018-06-20T03:38:24.370Z,81.21
2018-06-20T03:39:34.548Z,81.4
2018-06-20T03:40:44.709Z,81.5
2018-06-20T03:41:54.893Z,81.5
2018-06-20T03:43:05.042Z,81.6
2018-06-20T03:44:15.219Z,81.5
2018-06-20T03:45:25.186Z,81.4
2018-06-20T03:46:35.361Z,82.17
2018-06-20T03:47:45.506Z,81.79
2018-06-20T03:48:55.762Z,81.98
2018-06-20T03:50:05.897Z,81.79
2018-06-20T03:51:16.077Z,82.17
2018-06-20T03:52:26.063Z,81.5
2018-06-20T03:53:36.214Z,82.08
2018-06-20T03:54:46.426Z,82.08
2018-06-20T03:55:56.574Z,82.17
2018-06-20T03:57:06.794Z,82.17
2018-06-20T03:58:16.706Z,81.6
2018-06-20T03:59:26.843Z,81.88
2018-06-20T04:00:37.036Z,81.7
2018-06-20T04:01:46.938Z,81.7
2018-06-20T04:02:57.070Z,81.5
2018-06-20T04:04:07.215Z,81.88
2018-06-20T04:05:17.392Z,81.7
2018-06-20T04:06:27.658Z,81.79
2018-06-20T04:07:37.836Z,81.98
2018-06-20T04:08:48.184Z,81.98
2018-06-20T04:09:58.352Z,82.27
2018-06-20T04:11:08.535Z,82.17
2018-06-20T04:12:18.702Z,82.17
2018-06-20T04:13:28.901Z,82.08
2018-06-20T04:14:39.057Z,82.27
2018-06-20T04:15:49.476Z,81.79
2018-06-20T04:16:59.654Z,81.98
2018-06-20T04:18:09.863Z,82.02
2018-06-20T04:19:20.192Z,81.25
2018-06-20T04:20:30.376Z,81.16
2018-06-20T04:21:40.521Z,81.12
2018-06-20T04:22:50.729Z,81.3
2018-06-20T04:24:00.942Z,81.25
2018-06-20T04:25:11.131Z,81.16
2018-06-20T04:26:21.547Z,81.06
2018-06-20T04:27:31.700Z,81.54
2018-06-20T04:28:41.928Z,81.06
2018-06-20T04:29:52.145Z,81.3
2018-06-20T04:31:02.328Z,81.21
2018-06-20T04:32:12.520Z,81.25
2018-06-20T04:33:22.708Z,81.4
2018-06-20T04:34:32.946Z,81.54
2018-06-20T04:35:43.602Z,81.54
2018-06-20T04:36:53.814Z,81.25
2018-06-20T04:38:03.979Z,81.25
2018-06-20T04:39:14.146Z,81.45
2018-06-20T04:40:24.320Z,81.63
2018-06-20T04:41:34.486Z,81.54
2018-06-20T04:42:44.757Z,81.54
2018-06-20T04:43:54.910Z,81.35
2018-06-20T04:45:05.070Z,82.02
2018-06-20T04:46:15.224Z,81.35
2018-06-20T04:47:25.365Z,82.12
2018-06-20T04:48:35.615Z,82.12
2018-06-20T04:49:45.859Z,81.54
2018-06-20T04:50:56.070Z,81.73
2018-06-20T04:52:06.391Z,81.54
2018-06-20T04:53:16.563Z,81.54
2018-06-20T04:54:26.773Z,81.54
2018-06-20T04:55:37.061Z,81.83
2018-06-20T04:56:47.253Z,81.54
2018-06-20T04:57:57.459Z,80.96
2018-06-20T04:59:07.637Z,81.54
2018-06-20T05:00:18.031Z,81.06
2018-06-20T05:01:28.168Z,81.54
2018-06-20T05:02:38.332Z,81.35
2018-06-20T05:03:48.481Z,81.45
2018-06-20T05:04:58.866Z,81.35
2018-06-20T05:06:09.040Z,81.16
2018-06-20T05:07:19.241Z,81.35
2018-06-20T05:08:29.381Z,81.63
2018-06-20T05:09:39.558Z,81.16
2018-06-20T05:10:49.858Z,81.35
2018-06-20T05:12:00.086Z,81.63
2018-06-20T05:13:10.551Z,81.68
2018-06-20T05:14:20.689Z,81.2
2018-06-20T05:15:31.073Z,81.1
2018-06-20T05:16:41.274Z,80.91
2018-06-20T05:17:51.771Z,81.1
2018-06-20T05:19:01.932Z,80.91
2018-06-20T05:20:12.070Z,80.71
2018-06-20T05:21:21.939Z,80.62
2018-06-20T05:22:32.129Z,80.71
2018-06-20T05:23:42.933Z,80.71
2018-06-20T05:24:53.080Z,80.81
2018-06-20T05:26:03.223Z,80.81
2018-06-20T05:27:13.394Z,80.71
2018-06-20T05:28:23.570Z,80.81
2018-06-20T05:29:33.763Z,80.62
2018-06-20T05:30:43.982Z,80.62
2018-06-20T05:31:54.163Z,80.81
2018-06-20T05:33:04.312Z,80.52
2018-06-20T05:34:14.457Z,80.71
2018-06-20T05:35:24.807Z,80.23
2018-06-20T05:36:34.976Z,80.71
2018-06-20T05:37:45.158Z,80.91
2018-06-20T05:38:55.309Z,80.23
2018-06-20T05:40:05.443Z,80.56
2018-06-20T05:41:15.588Z,80.08
2018-06-20T05:42:25.771Z,80.08
2018-06-20T05:43:35.986Z,80.27
2018-06-20T05:44:46.351Z,79.98
2018-06-20T05:45:56.514Z,79.89
2018-06-20T05:47:06.717Z,79.89
2018-06-20T05:48:16.912Z,79.98
2018-06-20T05:49:26.837Z,79.6
2018-06-20T05:50:37.016Z,79.41
2018-06-20T05:51:47.160Z,79.89
2018-06-20T05:52:57.344Z,79.6
2018-06-20T05:54:07.207Z,79.21
2018-06-20T05:55:17.106Z,79.5
2018-06-20T05:56:27.262Z,79.41
2018-06-20T05:57:37.447Z,79.6
2018-06-20T05:58:47.576Z,79.69
2018-06-20T05:59:57.737Z,79.31
2018-06-20T06:01:07.918Z,78.67
2018-06-20T06:02:18.086Z,79.06
2018-06-20T06:03:28.268Z,78.92
2018-06-20T06:04:38.433Z,78.96
2018-06-20T06:05:48.853Z,78.48
2018-06-20T06:06:59.012Z,78.58
2018-06-20T06:08:09.187Z,78.38
2018-06-20T06:09:26.830Z,78.09
2018-06-20T06:10:37.044Z,78.09
2018-06-20T06:12:58.603Z,77.65
2018-06-20T06:14:08.740Z,77.65
2018-06-20T06:15:19.132Z,77.36
2018-06-20T06:16:29.304Z,77.65
2018-06-20T06:17:39.461Z,77.26
2018-06-20T06:18:49.832Z,76.98
2018-06-20T06:19:59.983Z,76.88
2018-06-20T06:21:10.152Z,77.07
2018-06-20T06:22:20.310Z,76.88
2018-06-20T06:23:30.564Z,76.72
2018-06-20T06:24:40.773Z,76.78
2018-06-20T06:25:50.906Z,76.53
2018-06-20T06:27:01.080Z,76.68
2018-06-20T06:28:11.268Z,76.5
2018-06-20T06:29:21.517Z,76.3
2018-06-20T06:30:31.898Z,76.1
2018-06-20T06:31:42.270Z,76.24
2018-06-20T06:32:52.409Z,76.34
2018-06-20T06:34:02.423Z,76.3
2018-06-20T06:35:12.809Z,76.34
2018-06-20T06:36:22.956Z,76.01
2018-06-20T06:37:33.136Z,75.82
2018-06-20T06:38:43.436Z,76.05
2018-06-20T06:39:53.583Z,75.18
2018-06-20T06:41:03.815Z,75.27
2018-06-20T06:42:13.696Z,75.18
2018-06-20T06:43:23.694Z,74.89
2018-06-20T06:44:33.906Z,75.18
2018-06-20T06:45:44.080Z,74.69
2018-06-20T06:46:54.223Z,74.41
2018-06-20T06:48:04.379Z,74.41
2018-06-20T06:49:14.612Z,74.21
2018-06-20T06:50:24.802Z,73.73
2018-06-20T06:51:34.984Z,73.83
2018-06-20T06:52:45.145Z,73.86
2018-06-20T06:53:55.359Z,73.58
2018-06-20T06:55:05.567Z,74.06
2018-06-20T06:56:15.735Z,73.48
2018-06-20T06:57:26.057Z,72.9
2018-06-20T06:58:36.196Z,72.71
2018-06-20T06:59:46.397Z,72.32
2018-06-20T07:00:56.649Z,72.52
2018-06-20T07:02:06.917Z,72.26
2018-06-20T07:03:17.162Z,72.06
2018-06-20T07:04:27.335Z,71.97
2018-06-20T07:05:37.711Z,71.48
2018-06-20T07:06:47.748Z,71.88
2018-06-20T07:07:57.960Z,71.88
2018-06-20T07:09:08.135Z,71.48
2018-06-20T07:10:18.406Z,71.58
2018-06-20T07:11:28.344Z,71.58
2018-06-20T07:12:38.519Z,71.48
2018-06-20T07:13:48.651Z,71.2
2018-06-20T07:14:58.791Z,70.52
2018-06-20T07:16:08.940Z,70.72
2018-06-20T07:17:19.136Z,70.72
2018-06-20T07:18:29.372Z,70.32
2018-06-20T07:19:39.574Z,70.26
2018-06-20T07:20:49.843Z,70.26
2018-06-20T07:22:00.097Z,69.98
2018-06-20T07:23:10.324Z,70.14
2018-06-20T07:24:20.610Z,69.78
2018-06-20T07:25:31.160Z,69.78
2018-06-20T07:26:41.311Z,69.74
2018-06-20T07:27:51.601Z,69.46
2018-06-20T07:29:02.029Z,69.36
2018-06-20T07:30:12.200Z,69.26
2018-06-20T07:31:22.736Z,69.49
2018-06-20T07:32:32.877Z,69.59
2018-06-20T07:33:43.055Z,68.52
2018-06-20T07:34:53.211Z,68.72
2018-06-20T07:36:03.801Z,68.43
2018-06-20T07:37:14.547Z,68.72
2018-06-20T07:38:24.755Z,68.91
2018-06-20T07:39:34.933Z,68.91
2018-06-20T07:40:45.349Z,68.72
2018-06-20T07:41:55.497Z,68.82
2018-06-20T07:43:05.622Z,68.52
2018-06-20T07:44:15.789Z,67.69
2018-06-20T07:45:26.051Z,67.36
2018-06-20T07:46:36.200Z,67.36
2018-06-20T07:47:46.463Z,67.36
2018-06-20T07:48:56.769Z,67.11
2018-06-20T07:50:06.988Z,67.01
2018-06-20T07:51:17.144Z,66.72
2018-06-20T07:52:28.744Z,66.63
2018-06-20T07:54:51.781Z,66.37
2018-06-20T07:56:01.962Z,66.08
2018-06-20T07:57:12.181Z,65.98
2018-06-20T07:58:22.364Z,65.69
2018-06-20T07:59:32.611Z,65.98
2018-06-20T08:00:42.986Z,65.59
2018-06-20T08:01:53.585Z,65.69
2018-06-20T08:03:03.779Z,65.5
2018-06-20T08:04:13.953Z,65.4
2018-06-20T08:05:24.119Z,65.24
2018-06-20T08:06:34.376Z,64.66
2018-06-20T08:07:44.573Z,65.53
2018-06-20T08:08:54.824Z,64.47
2018-06-20T08:10:05.028Z,64.85
2018-06-20T08:11:15.168Z,64.4
2018-06-20T08:12:25.508Z,64.4
2018-06-20T08:13:35.913Z,64.59
2018-06-20T08:14:46.060Z,64.3
2018-06-20T08:15:56.208Z,63.92
2018-06-20T08:17:06.412Z,64.01
2018-06-20T08:18:16.340Z,63.92
2018-06-20T08:19:26.508Z,63.92
2018-06-20T08:20:36.670Z,64.01
2018-06-20T08:21:46.866Z,63.34
2018-06-20T08:22:56.758Z,63.04
2018-06-20T08:24:06.906Z,63.24
2018-06-20T08:25:17.058Z,63.24
2018-06-20T08:26:27.208Z,62.92
2018-06-20T08:27:37.348Z,63.01
2018-06-20T08:28:47.532Z,63.01
2018-06-20T08:29:57.802Z,62.53
2018-06-20T08:31:07.987Z,62.24
2018-06-20T08:32:18.301Z,62.56
2018-06-20T08:33:28.669Z,61.98
2018-06-20T08:34:38.888Z,62.37
2018-06-20T08:35:48.892Z,62.37
2018-06-20T08:36:59.053Z,62.37
2018-06-20T08:38:09.188Z,62.34
2018-06-20T08:39:19.334Z,62.43
2018-06-20T08:40:29.497Z,62.14
2018-06-20T08:41:39.657Z,62.53
2018-06-20T08:42:49.853Z,62.92
2018-06-20T08:44:00.048Z,62.3
2018-06-20T08:45:10.205Z,62.11
2018-06-20T08:46:21.414Z,62.79
2018-06-20T08:47:31.405Z,62.79
2018-06-20T08:48:41.582Z,63.08
2018-06-20T08:49:51.774Z,62.88
2018-06-20T08:51:01.975Z,63.66
2018-06-20T08:52:12.121Z,63.37
2018-06-20T08:53:22.028Z,63.37
2018-06-20T08:54:32.177Z,63.34
2018-06-20T08:55:42.330Z,63.27
2018-06-20T08:56:52.505Z,63.37
2018-06-20T08:58:02.665Z,63.18
2018-06-20T08:59:12.912Z,63.08
2018-06-20T09:00:23.200Z,63.01
2018-06-20T09:01:33.430Z,63.11
2018-06-20T09:02:43.672Z,63.11
2018-06-20T09:03:53.841Z,62.82
2018-06-20T09:05:04.013Z,62.92
2018-06-20T09:06:14.340Z,62.56
2018-06-20T09:07:24.501Z,62.82
2018-06-20T09:08:34.742Z,62.24
2018-06-20T09:09:44.741Z,62.53
2018-06-20T09:10:55.124Z,62.07
2018-06-20T09:12:05.428Z,62.24
2018-06-20T09:13:15.627Z,62.24
2018-06-20T09:14:26.043Z,62.14
2018-06-20T09:15:36.219Z,61.85
2018-06-20T09:16:46.402Z,61.76
2018-06-20T09:17:56.371Z,61.76
2018-06-20T09:19:06.576Z,61.85
2018-06-20T09:20:16.973Z,62.11
2018-06-20T09:21:27.309Z,61.82
2018-06-20T09:22:37.461Z,61.76
2018-06-20T09:23:47.645Z,61.72
2018-06-20T09:24:57.843Z,61.72
2018-06-20T09:26:08.045Z,62.01
2018-06-20T09:27:18.271Z,62.24
2018-06-20T09:28:28.439Z,62.43
2018-06-20T09:29:38.636Z,61.76
2018-06-20T09:30:48.917Z,61.88
2018-06-20T09:31:59.190Z,60.82
2018-06-20T09:33:09.393Z,61.33
2018-06-20T09:34:19.636Z,60.85
2018-06-20T09:35:29.866Z,60.75
2018-06-20T09:36:39.746Z,60.49
2018-06-20T09:37:50.876Z,60.78
2018-06-20T09:39:01.370Z,60.1
2018-06-20T09:40:11.716Z,59.91
2018-06-20T09:41:21.619Z,59.81
2018-06-20T09:42:31.799Z,59.81
2018-06-20T09:43:41.952Z,59.69
2018-06-20T09:44:52.120Z,59.39
2018-06-20T09:46:02.276Z,59.78
2018-06-20T09:47:12.536Z,59.78
2018-06-20T09:48:22.741Z,59.97
2018-06-20T09:49:32.969Z,59.97
2018-06-20T09:50:43.171Z,59.88
2018-06-20T09:51:53.328Z,59.69
2018-06-20T09:53:03.518Z,59.97
2018-06-20T09:54:13.881Z,59.84
2018-06-20T09:55:24.319Z,60.46
2018-06-20T09:56:34.523Z,60.04
2018-06-20T09:57:44.675Z,60.14
2018-06-20T09:58:55.022Z,60.27
2018-06-20T10:00:05.181Z,60.72
2018-06-20T10:01:15.317Z,60.14
2018-06-20T10:02:25.692Z,60.04
2018-06-20T10:03:35.949Z,60.43
2018-06-20T10:04:46.120Z,60.72
2018-06-20T10:05:56.290Z,60.62
2018-06-20T10:07:06.431Z,60.14
2018-06-20T10:08:16.594Z,60.14
2018-06-20T10:09:26.838Z,60.62
2018-06-20T10:10:36.991Z,60.14
2018-06-20T10:11:47.165Z,60.24
2018-06-20T10:12:57.377Z,59.94
2018-06-20T10:14:07.523Z,60.14
2018-06-20T10:15:17.718Z,60.14
2018-06-20T10:16:28.082Z,59.88
2018-06-20T10:17:38.295Z,59.59
2018-06-20T10:18:48.442Z,59.69
2018-06-20T10:19:59.831Z,59.1
2018-06-20T10:21:10.176Z,59.13
2018-06-20T10:22:20.917Z,59.13
2018-06-20T10:23:31.074Z,59.16
2018-06-20T10:24:41.226Z,58.67
2018-06-20T10:25:51.379Z,57.8
2018-06-20T10:27:01.663Z,57.61
2018-06-20T10:28:11.845Z,57.73
2018-06-20T10:29:22.207Z,57.25
2018-06-20T10:30:32.423Z,56.4
2018-06-20T10:31:42.784Z,56.04
2018-06-20T10:32:52.965Z,56.04
2018-06-20T10:34:03.165Z,55.75
2018-06-20T10:35:13.214Z,55.29
2018-06-20T10:36:23.062Z,54.9
2018-06-20T10:37:33.234Z,54.78
2018-06-20T10:38:43.405Z,55.17
2018-06-20T10:39:53.666Z,54.97
2018-06-20T10:41:04.044Z,54.58
2018-06-20T10:42:14.420Z,54.68
2018-06-20T10:43:24.596Z,54.29
2018-06-20T10:44:34.795Z,54.88
2018-06-20T10:45:45.054Z,53.97
2018-06-20T10:46:55.363Z,54.36
2018-06-20T10:48:05.549Z,54.72
2018-06-20T10:49:15.786Z,54.44
2018-06-20T10:50:25.842Z,54.72
2018-06-20T10:51:36.246Z,55.08
2018-06-20T10:52:46.517Z,54.99
2018-06-20T10:53:56.887Z,55.18
2018-06-20T10:55:07.103Z,55.08
2018-06-20T10:56:17.258Z,55.08
2018-06-20T10:57:27.416Z,55.67
2018-06-20T10:58:37.620Z,55.57
2018-06-20T10:59:47.804Z,55.6
2018-06-20T11:00:58.025Z,55.6
2018-06-20T11:02:08.220Z,55.21
2018-06-20T11:03:18.456Z,54.82
2018-06-20T11:04:28.661Z,54.94
2018-06-20T11:05:38.865Z,54.85
2018-06-20T11:06:49.077Z,54.56
2018-06-20T11:07:59.373Z,54.85
2018-06-20T11:09:09.588Z,54.78
2018-06-20T11:10:19.781Z,54.68
2018-06-20T11:11:30.051Z,54.78
2018-06-20T11:12:40.252Z,54.29
2018-06-20T11:13:50.470Z,54.2
2018-06-20T11:15:00.850Z,53.91
2018-06-20T11:16:10.993Z,53.71
2018-06-20T11:17:21.183Z,53.71
2018-06-20T11:18:31.365Z,53.32
2018-06-20T11:19:41.569Z,53.22
2018-06-20T11:20:51.784Z,53.42
2018-06-20T11:22:02.063Z,53.42
2018-06-20T11:23:12.327Z,53.13
2018-06-20T11:24:23.022Z,53.13
2018-06-20T11:25:33.252Z,52.94
2018-06-20T11:26:44.394Z,52.94
2018-06-20T11:27:54.606Z,53.06
2018-06-20T11:29:04.889Z,53.03
2018-06-20T11:30:15.119Z,52.94
2018-06-20T11:31:25.321Z,52.84
2018-06-20T11:32:35.548Z,53.13
2018-06-20T11:33:45.759Z,52.25
2018-06-20T11:34:55.935Z,52.84
2018-06-20T11:36:06.155Z,53.03
2018-06-20T11:37:16.335Z,52.45
2018-06-20T11:38:26.553Z,51.97
2018-06-20T11:39:36.768Z,51.97
2018-06-20T11:40:46.947Z,52.03
2018-06-20T11:41:56.852Z,52.23
2018-06-20T11:43:07.260Z,52.23
2018-06-20T11:44:17.423Z,52.72
2018-06-20T11:45:27.688Z,53
2018-06-20T11:46:37.287Z,53
2018-06-20T11:47:47.425Z,52.91
2018-06-20T11:48:57.591Z,52.91
2018-06-20T11:50:07.767Z,52.98
2018-06-20T11:51:17.662Z,53.2
2018-06-20T11:52:27.832Z,53.27
2018-06-20T11:53:38.131Z,53.39
2018-06-20T11:54:48.314Z,53.08
2018-06-20T11:55:58.531Z,53.37
2018-06-20T11:57:08.697Z,53.39
2018-06-20T11:58:19.005Z,53.2
2018-06-20T11:59:29.181Z,53.49
2018-06-20T12:00:39.341Z,53.3
2018-06-20T12:01:49.662Z,53.49
2018-06-20T12:03:00.269Z,53.59
2018-06-20T12:04:10.159Z,53.69
2018-06-20T12:05:20.313Z,53.3
2018-06-20T12:06:30.490Z,53.3
2018-06-20T12:07:40.674Z,53.1
2018-06-20T12:08:50.870Z,53.1
2018-06-20T12:10:01.220Z,52.91
2018-06-20T12:11:11.365Z,52.72
2018-06-20T12:12:21.605Z,52.84
2018-06-20T12:13:31.920Z,52.55
2018-06-20T12:14:42.368Z,51.89
2018-06-20T12:15:52.664Z,51.6
2018-06-20T12:17:02.850Z,51.62
2018-06-20T12:18:13.071Z,51.53
2018-06-20T12:19:23.479Z,51.53
2018-06-20T12:20:33.665Z,51.55
2018-06-20T12:21:43.837Z,51.17
2018-06-20T12:22:53.747Z,50.68
2018-06-20T12:24:03.942Z,50.09
2018-06-20T12:25:14.156Z,49.99
2018-06-20T12:26:24.346Z,49.99
2018-06-20T12:27:34.581Z,50.29
2018-06-20T12:28:44.759Z,50.29
2018-06-20T12:29:54.916Z,50.29
2018-06-20T12:31:05.091Z,50.29
2018-06-20T12:32:15.301Z,50.75
2018-06-20T12:33:25.523Z,50.65
2018-06-20T12:34:35.809Z,50.85
2018-06-20T12:35:46.036Z,50.38
2018-06-20T12:36:56.296Z,49.99
2018-06-20T12:38:06.186Z,49.9
2018-06-20T12:39:16.036Z,49.8
2018-06-20T12:40:26.219Z,49.63
2018-06-20T12:41:36.507Z,49.44
2018-06-20T12:42:47.046Z,49.15
2018-06-20T12:43:57.275Z,49.54
2018-06-20T12:45:07.194Z,49.44
2018-06-20T12:46:17.425Z,49.76
2018-06-20T12:47:27.705Z,49.66
2018-06-20T12:48:37.933Z,49.07
2018-06-20T12:49:48.122Z,49.27
2018-06-20T12:50:58.377Z,48.88
2018-06-20T12:52:08.547Z,48.29
2018-06-20T12:53:18.799Z,48.49
2018-06-20T12:54:29.281Z,48.39
2018-06-20T12:55:39.497Z,48.39
2018-06-20T12:56:49.682Z,47.8
2018-06-20T12:57:59.894Z,48.29
2018-06-20T12:59:10.102Z,48.1
2018-06-20T13:00:20.313Z,48.29
2018-06-20T13:01:30.484Z,47.9
2018-06-20T13:02:40.711Z,48.36
2018-06-20T13:03:50.906Z,48.17
2018-06-20T13:05:01.170Z,48.46
2018-06-20T13:06:11.343Z,48.63
2018-06-20T13:07:21.541Z,48.63
2018-06-20T13:08:31.742Z,48.83
2018-06-20T13:09:41.913Z,48.46
2018-06-20T13:10:52.078Z,48.36
2018-06-20T13:12:02.082Z,48.46
2018-06-20T13:13:12.303Z,48.36
2018-06-20T13:14:22.508Z,47.59
2018-06-20T13:15:32.680Z,47.88
2018-06-20T13:16:42.925Z,47.39
2018-06-20T13:17:52.735Z,47.56
2018-06-20T13:19:02.899Z,47.78
2018-06-20T13:20:13.161Z,47.69
2018-06-20T13:21:23.711Z,47.78
2018-06-20T13:22:33.998Z,47.59
2018-06-20T13:23:44.216Z,47.59
2018-06-20T13:24:54.376Z,47.86
2018-06-20T13:26:04.600Z,47.69
2018-06-20T13:27:14.811Z,47.69
2018-06-20T13:28:25.129Z,47.69
2018-06-20T13:29:35.333Z,47.66
2018-06-20T13:30:46.131Z,48.15
2018-06-20T13:31:56.336Z,47.86
2018-06-20T13:33:06.515Z,48.34
2018-06-20T13:34:16.357Z,48.25
2018-06-20T13:35:26.539Z,48.05
2018-06-20T13:36:36.475Z,48.05
2018-06-20T13:37:46.637Z,48.25
2018-06-20T13:38:57.061Z,48.54
2018-06-20T13:40:07.227Z,48.25
2018-06-20T13:41:17.416Z,49.12
2018-06-20T13:42:27.324Z,48.73
2018-06-20T13:43:37.390Z,49.12
2018-06-20T13:44:47.550Z,49.22
2018-06-20T13:45:57.803Z,49.22
2018-06-20T13:47:08.060Z,49.12
2018-06-20T13:48:18.233Z,49.12
2018-06-20T13:49:28.441Z,48.73
2018-06-20T13:50:38.645Z,49.12
2018-06-20T13:51:48.582Z,48.54
2018-06-20T13:52:58.769Z,48.73
2018-06-20T13:54:08.917Z,49.02
2018-06-20T13:55:19.358Z,48.73
2018-06-20T13:56:29.574Z,48.34
2018-06-20T13:57:39.735Z,48.34
2018-06-20T13:58:49.904Z,47.96
2018-06-20T14:00:00.081Z,47.86
2018-06-20T14:01:10.286Z,47.47
2018-06-20T14:02:20.540Z,47.69
2018-06-20T14:03:30.753Z,47.78
2018-06-20T14:04:40.959Z,48.27
2018-06-20T14:05:51.137Z,48.27
2018-06-20T14:07:01.365Z,47.2
2018-06-20T14:08:11.589Z,47.3
2018-06-20T14:09:21.871Z,47.66
2018-06-20T14:10:32.090Z,47.56
2018-06-20T14:11:42.309Z,48.34
2018-06-20T14:12:52.529Z,48.15
2018-06-20T14:14:02.738Z,47.86
2018-06-20T14:15:12.996Z,48.34
2018-06-20T14:16:23.170Z,48.15
2018-06-20T14:17:33.353Z,48.15
2018-06-20T14:18:43.628Z,47.76
2018-06-20T14:19:53.827Z,47.56
2018-06-20T14:21:04.093Z,47.56
2018-06-20T14:22:14.294Z,47.76
2018-06-20T14:23:24.488Z,47.66
2018-06-20T14:24:34.738Z,47.96
2018-06-20T14:25:44.687Z,47.76
2018-06-20T14:26:54.845Z,47.78
2018-06-20T14:28:05.042Z,47.78
2018-06-20T14:30:26.728Z,48.17
2018-06-20T14:31:36.960Z,48.07
2018-06-20T14:32:47.237Z,48.07
2018-06-20T14:33:57.434Z,48.36
2018-06-20T14:35:07.437Z,47.59
2018-06-20T14:36:17.783Z,47.78
2018-06-20T14:37:28.287Z,47.39
2018-06-20T14:38:38.580Z,47.69
2018-06-20T14:39:49.403Z,47.88
2018-06-20T14:40:59.706Z,47.49
2018-06-20T14:42:09.902Z,47.88
2018-06-20T14:43:20.197Z,47.49
2018-06-20T14:44:30.415Z,47.69
2018-06-20T14:45:40.647Z,47.59
2018-06-20T14:46:51.033Z,47.2
2018-06-20T14:48:01.099Z,48.07
2018-06-20T14:49:11.371Z,47.49
2018-06-20T14:50:21.574Z,46.71
2018-06-20T14:51:31.817Z,47.49
2018-06-20T14:52:42.023Z,47.2
2018-06-20T14:53:52.199Z,47.1
2018-06-20T14:55:02.422Z,47.49
2018-06-20T14:56:12.731Z,47.59
2018-06-20T14:57:23.044Z,47.78
2018-06-20T14:58:33.255Z,47.49
2018-06-20T14:59:43.503Z,47.59
2018-06-20T15:00:53.729Z,47.69
2018-06-20T15:02:03.977Z,47.88
2018-06-20T15:03:14.173Z,47.78
2018-06-20T15:04:24.362Z,48.46
2018-06-20T15:05:34.304Z,48.25
2018-06-20T15:06:44.728Z,48.07
2018-06-20T15:07:54.931Z,48.36
2018-06-20T15:10:17.590Z,47.78
2018-06-20T15:11:27.802Z,47.49
2018-06-20T15:12:38.018Z,47.88
2018-06-20T15:13:48.282Z,48.36
2018-06-20T15:14:58.555Z,48.36
2018-06-20T15:16:09.822Z,48.46